Terminal Aerodrome Forecast
Issued by NWS

Home | Current Version | Previous Version | Text Only | Print | Product List | Glossary On
Versions: 1 2 3 4 5 6 7 8 9 10 11 12 13 14
314
FTAK31 PAJN 252330
TAFAPG
TAF
PAPG 252330Z 2600/2624 05008KT P6SM BKN029
     FM260100 21010KT P6SM SKC
     FM260600 00000KT P6SM VCFG FEW002
     FM261800 VRB03KT P6SM BKN080
      AMD LTD TO CLD VIS AND WIND 2606/2615=

USA.gov is the U.S. government's official web portal to all federal, state and local government web resources and services.